sensor_id;sensor_type;location;lat;lon;timestamp;pressure;altitude;pressure_sealevel;temperature;humidity
76819;BME280;65772;51.096;17.006;2023-07-29T00:01:48;99581.19;;;21.92;60.28
76819;BME280;65772;51.096;17.006;2023-07-29T00:04:20;99580.36;;;21.91;60.26
76819;BME280;65772;51.096;17.006;2023-07-29T00:06:51;99578.87;;;21.88;60.38
76819;BME280;65772;51.096;17.006;2023-07-29T00:09:21;99574.07;;;21.86;60.50
76819;BME280;65772;51.096;17.006;2023-07-29T00:11:52;99570.48;;;21.83;60.47
76819;BME280;65772;51.096;17.006;2023-07-29T00:14:22;99574.55;;;21.81;60.69
76819;BME280;65772;51.096;17.006;2023-07-29T00:16:53;99573.75;;;21.79;60.77
76819;BME280;65772;51.096;17.006;2023-07-29T00:19:23;99571.92;;;21.76;60.56
76819;BME280;65772;51.096;17.006;2023-07-29T00:21:54;99578.76;;;21.74;60.71
76819;BME280;65772;51.096;17.006;2023-07-29T00:24:24;99579.19;;;21.71;60.83
76819;BME280;65772;51.096;17.006;2023-07-29T00:26:55;99580.48;;;21.68;60.71
76819;BME280;65772;51.096;17.006;2023-07-29T00:29:25;99581.11;;;21.65;60.75
76819;BME280;65772;51.096;17.006;2023-07-29T00:31:56;99585.90;;;21.62;60.98
76819;BME280;65772;51.096;17.006;2023-07-29T00:34:26;99586.09;;;21.61;61.08
76819;BME280;65772;51.096;17.006;2023-07-29T00:36:57;99582.60;;;21.62;61.18
76819;BME280;65772;51.096;17.006;2023-07-29T00:39:27;99581.60;;;21.61;61.09
76819;BME280;65772;51.096;17.006;2023-07-29T00:41:58;99584.40;;;21.60;61.07
76819;BME280;65772;51.096;17.006;2023-07-29T00:44:28;99586.33;;;21.59;61.22
76819;BME280;65772;51.096;17.006;2023-07-29T00:47:04;99588.97;;;21.58;61.05
76819;BME280;65772;51.096;17.006;2023-07-29T00:49:36;99592.29;;;21.57;61.20
76819;BME280;65772;51.096;17.006;2023-07-29T00:52:07;99590.75;;;21.55;61.19
76819;BME280;65772;51.096;17.006;2023-07-29T00:54:40;99587.88;;;21.52;61.25
76819;BME280;65772;51.096;17.006;2023-07-29T00:57:13;99586.24;;;21.49;61.45
76819;BME280;65772;51.096;17.006;2023-07-29T00:59:44;99587.52;;;21.47;61.47
76819;BME280;65772;51.096;17.006;2023-07-29T01:02:15;99584.63;;;21.45;61.51
76819;BME280;65772;51.096;17.006;2023-07-29T01:04:46;99584.50;;;21.43;61.59
76819;BME280;65772;51.096;17.006;2023-07-29T01:07:27;99584.91;;;21.40;61.60
76819;BME280;65772;51.096;17.006;2023-07-29T01:10:02;99585.66;;;21.39;61.74
76819;BME280;65772;51.096;17.006;2023-07-29T01:12:46;99585.51;;;21.38;62.00
76819;BME280;65772;51.096;17.006;2023-07-29T01:15:24;99583.63;;;21.37;62.01
76819;BME280;65772;51.096;17.006;2023-07-29T01:18:05;99583.66;;;21.36;61.86
76819;BME280;65772;51.096;17.006;2023-07-29T01:20:38;99579.02;;;21.33;61.93
76819;BME280;65772;51.096;17.006;2023-07-29T01:23:10;99579.93;;;21.32;61.82
76819;BME280;65772;51.096;17.006;2023-07-29T01:25:41;99581.20;;;21.30;62.01
76819;BME280;65772;51.096;17.006;2023-07-29T01:28:11;99581.21;;;21.30;62.10
76819;BME280;65772;51.096;17.006;2023-07-29T01:30:45;99583.16;;;21.29;62.31
76819;BME280;65772;51.096;17.006;2023-07-29T01:33:20;99583.71;;;21.28;62.26
76819;BME280;65772;51.096;17.006;2023-07-29T01:35:57;99584.08;;;21.27;62.31
76819;BME280;65772;51.096;17.006;2023-07-29T01:38:32;99584.82;;;21.25;62.25
76819;BME280;65772;51.096;17.006;2023-07-29T01:41:06;99587.27;;;21.24;62.18
76819;BME280;65772;51.096;17.006;2023-07-29T01:43:38;99585.07;;;21.22;62.31
76819;BME280;65772;51.096;17.006;2023-07-29T01:46:14;99589.12;;;21.19;62.35
76819;BME280;65772;51.096;17.006;2023-07-29T01:48:44;99588.63;;;21.19;62.40
76819;BME280;65772;51.096;17.006;2023-07-29T01:51:16;99585.17;;;21.18;62.42
76819;BME280;65772;51.096;17.006;2023-07-29T01:53:46;99582.05;;;21.17;62.50
76819;BME280;65772;51.096;17.006;2023-07-29T01:56:17;99580.85;;;21.16;62.47
76819;BME280;65772;51.096;17.006;2023-07-29T01:58:54;99582.09;;;21.15;62.39
76819;BME280;65772;51.096;17.006;2023-07-29T02:01:25;99584.38;;;21.14;62.42
76819;BME280;65772;51.096;17.006;2023-07-29T02:03:56;99581.12;;;21.12;62.55
76819;BME280;65772;51.096;17.006;2023-07-29T02:06:26;99585.15;;;21.10;62.60
76819;BME280;65772;51.096;17.006;2023-07-29T02:08:57;99581.00;;;21.09;62.65
76819;BME280;65772;51.096;17.006;2023-07-29T02:11:28;99579.95;;;21.09;62.60
76819;BME280;65772;51.096;17.006;2023-07-29T02:13:58;99584.33;;;21.08;62.67
76819;BME280;65772;51.096;17.006;2023-07-29T02:16:29;99584.88;;;21.08;62.78
76819;BME280;65772;51.096;17.006;2023-07-29T02:19:02;99583.58;;;21.05;62.97
76819;BME280;65772;51.096;17.006;2023-07-29T02:21:32;99582.43;;;21.02;63.06
76819;BME280;65772;51.096;17.006;2023-07-29T02:24:03;99579.04;;;20.98;63.03
76819;BME280;65772;51.096;17.006;2023-07-29T02:26:34;99576.79;;;20.98;63.00
76819;BME280;65772;51.096;17.006;2023-07-29T02:29:05;99571.91;;;20.99;63.09
76819;BME280;65772;51.096;17.006;2023-07-29T02:31:35;99576.23;;;20.99;63.06
76819;BME280;65772;51.096;17.006;2023-07-29T02:34:07;99573.27;;;21.00;63.17
76819;BME280;65772;51.096;17.006;2023-07-29T02:36:37;99572.21;;;21.00;63.26
76819;BME280;65772;51.096;17.006;2023-07-29T02:39:08;99575.53;;;21.00;63.39
76819;BME280;65772;51.096;17.006;2023-07-29T02:41:38;99573.29;;;20.99;63.42
76819;BME280;65772;51.096;17.006;2023-07-29T02:44:09;99573.13;;;20.99;63.33
76819;BME280;65772;51.096;17.006;2023-07-29T02:46:40;99569.19;;;20.97;63.38
76819;BME280;65772;51.096;17.006;2023-07-29T02:49:10;99572.20;;;20.95;63.45
76819;BME280;65772;51.096;17.006;2023-07-29T02:51:41;99575.55;;;20.93;63.32
76819;BME280;65772;51.096;17.006;2023-07-29T02:54:12;99574.73;;;20.90;63.42
76819;BME280;65772;51.096;17.006;2023-07-29T02:56:42;99579.14;;;20.87;63.44
76819;BME280;65772;51.096;17.006;2023-07-29T02:59:13;99582.52;;;20.85;63.53
76819;BME280;65772;51.096;17.006;2023-07-29T03:01:43;99587.23;;;20.83;63.57
76819;BME280;65772;51.096;17.006;2023-07-29T03:04:14;99588.29;;;20.83;63.58
76819;BME280;65772;51.096;17.006;2023-07-29T03:06:44;99585.55;;;20.81;63.63
76819;BME280;65772;51.096;17.006;2023-07-29T03:09:17;99586.45;;;20.79;63.66
76819;BME280;65772;51.096;17.006;2023-07-29T03:11:48;99584.72;;;20.79;63.62
76819;BME280;65772;51.096;17.006;2023-07-29T03:14:20;99590.98;;;20.78;63.59
76819;BME280;65772;51.096;17.006;2023-07-29T03:16:51;99595.70;;;20.77;63.50
76819;BME280;65772;51.096;17.006;2023-07-29T03:19:21;99595.23;;;20.76;63.53
76819;BME280;65772;51.096;17.006;2023-07-29T03:21:52;99591.59;;;20.76;63.70
76819;BME280;65772;51.096;17.006;2023-07-29T03:24:22;99594.75;;;20.74;63.64
76819;BME280;65772;51.096;17.006;2023-07-29T03:26:53;99595.48;;;20.73;63.66
76819;BME280;65772;51.096;17.006;2023-07-29T03:29:23;99597.40;;;20.72;63.62
76819;BME280;65772;51.096;17.006;2023-07-29T03:31:54;99596.34;;;20.73;63.58
76819;BME280;65772;51.096;17.006;2023-07-29T03:34:25;99600.11;;;20.75;63.64
76819;BME280;65772;51.096;17.006;2023-07-29T03:36:56;99596.46;;;20.75;63.57
76819;BME280;65772;51.096;17.006;2023-07-29T03:39:26;99593.01;;;20.75;63.50
76819;BME280;65772;51.096;17.006;2023-07-29T03:41:57;99594.76;;;20.74;63.39
76819;BME280;65772;51.096;17.006;2023-07-29T03:44:27;99590.27;;;20.73;63.33
76819;BME280;65772;51.096;17.006;2023-07-29T03:46:58;99593.77;;;20.71;63.37
76819;BME280;65772;51.096;17.006;2023-07-29T03:49:28;99594.49;;;20.70;63.50
76819;BME280;65772;51.096;17.006;2023-07-29T03:51:59;99597.48;;;20.68;63.31
76819;BME280;65772;51.096;17.006;2023-07-29T03:54:30;99600.14;;;20.66;63.28
76819;BME280;65772;51.096;17.006;2023-07-29T03:57:00;99601.44;;;20.63;63.44
76819;BME280;65772;51.096;17.006;2023-07-29T03:59:31;99602.88;;;20.61;63.56
76819;BME280;65772;51.096;17.006;2023-07-29T04:02:01;99603.45;;;20.58;63.55
76819;BME280;65772;51.096;17.006;2023-07-29T04:04:32;99603.77;;;20.59;63.60
76819;BME280;65772;51.096;17.006;2023-07-29T04:07:03;99605.17;;;20.59;63.50
76819;BME280;65772;51.096;17.006;2023-07-29T04:09:34;99611.09;;;20.58;63.59
76819;BME280;65772;51.096;17.006;2023-07-29T04:12:06;99609.52;;;20.58;63.75
76819;BME280;65772;51.096;17.006;2023-07-29T04:14:37;99613.34;;;20.58;63.78
76819;BME280;65772;51.096;17.006;2023-07-29T04:17:08;99611.27;;;20.58;63.72
76819;BME280;65772;51.096;17.006;2023-07-29T04:19:38;99614.54;;;20.58;63.93
76819;BME280;65772;51.096;17.006;2023-07-29T04:22:09;99610.20;;;20.59;63.91
76819;BME280;65772;51.096;17.006;2023-07-29T04:24:40;99615.05;;;20.59;63.88
76819;BME280;65772;51.096;17.006;2023-07-29T04:27:10;99616.42;;;20.59;63.90
76819;BME280;65772;51.096;17.006;2023-07-29T04:29:41;99613.50;;;20.58;63.85
76819;BME280;65772;51.096;17.006;2023-07-29T04:32:11;99619.39;;;20.59;63.87
76819;BME280;65772;51.096;17.006;2023-07-29T04:34:44;99616.59;;;20.60;63.75
76819;BME280;65772;51.096;17.006;2023-07-29T04:37:14;99609.95;;;20.62;63.68
76819;BME280;65772;51.096;17.006;2023-07-29T04:39:45;99613.23;;;20.63;63.75
76819;BME280;65772;51.096;17.006;2023-07-29T04:42:16;99615.30;;;20.64;63.78
76819;BME280;65772;51.096;17.006;2023-07-29T04:44:46;99611.83;;;20.64;63.65
76819;BME280;65772;51.096;17.006;2023-07-29T04:47:17;99614.42;;;20.64;63.54
76819;BME280;65772;51.096;17.006;2023-07-29T04:49:47;99617.72;;;20.64;63.59
76819;BME280;65772;51.096;17.006;2023-07-29T04:52:18;99618.77;;;20.63;63.43
76819;BME280;65772;51.096;17.006;2023-07-29T04:54:50;99617.39;;;20.63;63.55
76819;BME280;65772;51.096;17.006;2023-07-29T04:57:20;99616.34;;;20.63;63.39
76819;BME280;65772;51.096;17.006;2023-07-29T04:59:51;99614.27;;;20.63;63.47
76819;BME280;65772;51.096;17.006;2023-07-29T05:02:21;99612.70;;;20.63;63.59
76819;BME280;65772;51.096;17.006;2023-07-29T05:04:52;99612.01;;;20.64;63.65
76819;BME280;65772;51.096;17.006;2023-07-29T05:07:23;99612.44;;;20.66;63.65
76819;BME280;65772;51.096;17.006;2023-07-29T05:09:53;99613.04;;;20.70;63.43
76819;BME280;65772;51.096;17.006;2023-07-29T05:12:24;99615.59;;;20.73;63.38
76819;BME280;65772;51.096;17.006;2023-07-29T05:14:55;99614.66;;;20.76;63.45
76819;BME280;65772;51.096;17.006;2023-07-29T05:17:25;99617.88;;;20.78;63.51
76819;BME280;65772;51.096;17.006;2023-07-29T05:19:56;99620.92;;;20.82;63.54
76819;BME280;65772;51.096;17.006;2023-07-29T05:22:26;99620.73;;;20.83;63.52
76819;BME280;65772;51.096;17.006;2023-07-29T05:24:57;99621.25;;;20.83;63.48
76819;BME280;65772;51.096;17.006;2023-07-29T05:27:27;99625.20;;;20.85;63.48
76819;BME280;65772;51.096;17.006;2023-07-29T05:29:58;99625.14;;;20.87;63.43
76819;BME280;65772;51.096;17.006;2023-07-29T05:32:28;99627.67;;;20.89;63.54
76819;BME280;65772;51.096;17.006;2023-07-29T05:34:59;99626.21;;;20.93;63.58
76819;BME280;65772;51.096;17.006;2023-07-29T05:37:30;99622.10;;;20.98;63.64
76819;BME280;65772;51.096;17.006;2023-07-29T05:40:00;99620.23;;;21.03;63.62
76819;BME280;65772;51.096;17.006;2023-07-29T05:42:32;99627.77;;;21.07;63.59
76819;BME280;65772;51.096;17.006;2023-07-29T05:45:03;99626.25;;;21.11;63.76
76819;BME280;65772;51.096;17.006;2023-07-29T05:47:34;99627.02;;;21.16;63.81
76819;BME280;65772;51.096;17.006;2023-07-29T05:50:06;99629.00;;;21.21;63.78
76819;BME280;65772;51.096;17.006;2023-07-29T05:52:38;99632.41;;;21.24;63.89
76819;BME280;65772;51.096;17.006;2023-07-29T05:55:09;99634.98;;;21.26;63.86
76819;BME280;65772;51.096;17.006;2023-07-29T05:57:40;99634.42;;;21.27;63.95
76819;BME280;65772;51.096;17.006;2023-07-29T06:00:14;99634.20;;;21.29;63.96
76819;BME280;65772;51.096;17.006;2023-07-29T06:02:44;99632.73;;;21.31;64.07
76819;BME280;65772;51.096;17.006;2023-07-29T06:05:16;99634.56;;;21.34;64.06
76819;BME280;65772;51.096;17.006;2023-07-29T06:07:47;99634.80;;;21.39;64.10
76819;BME280;65772;51.096;17.006;2023-07-29T06:10:18;99634.14;;;21.44;64.13
76819;BME280;65772;51.096;17.006;2023-07-29T06:12:48;99635.95;;;21.48;64.15
76819;BME280;65772;51.096;17.006;2023-07-29T06:15:19;99633.91;;;21.52;64.17
76819;BME280;65772;51.096;17.006;2023-07-29T06:17:52;99634.70;;;21.55;64.00
76819;BME280;65772;51.096;17.006;2023-07-29T06:20:25;99633.90;;;21.60;64.03
76819;BME280;65772;51.096;17.006;2023-07-29T06:22:56;99635.19;;;21.62;63.86
76819;BME280;65772;51.096;17.006;2023-07-29T06:25:26;99634.60;;;21.65;63.83
76819;BME280;65772;51.096;17.006;2023-07-29T06:27:57;99635.75;;;21.68;63.82
76819;BME280;65772;51.096;17.006;2023-07-29T06:30:28;99637.25;;;21.71;63.90
76819;BME280;65772;51.096;17.006;2023-07-29T06:32:58;99638.55;;;21.73;64.11
76819;BME280;65772;51.096;17.006;2023-07-29T06:35:29;99634.65;;;21.76;64.01
76819;BME280;65772;51.096;17.006;2023-07-29T06:37:59;99635.08;;;21.80;64.02
76819;BME280;65772;51.096;17.006;2023-07-29T06:40:30;99636.84;;;21.84;63.86
76819;BME280;65772;51.096;17.006;2023-07-29T06:43:01;99634.16;;;21.87;63.84
76819;BME280;65772;51.096;17.006;2023-07-29T06:45:31;99635.07;;;21.92;63.87
76819;BME280;65772;51.096;17.006;2023-07-29T06:48:02;99634.43;;;21.96;63.96
76819;BME280;65772;51.096;17.006;2023-07-29T06:50:32;99630.89;;;22.00;63.96
76819;BME280;65772;51.096;17.006;2023-07-29T06:53:04;99627.34;;;22.03;63.83
76819;BME280;65772;51.096;17.006;2023-07-29T06:55:35;99619.59;;;22.05;63.63
76819;BME280;65772;51.096;17.006;2023-07-29T06:58:05;99620.41;;;22.07;63.98
76819;BME280;65772;51.096;17.006;2023-07-29T07:00:36;99616.02;;;22.09;63.84
76819;BME280;65772;51.096;17.006;2023-07-29T07:03:07;99615.23;;;22.12;63.84
76819;BME280;65772;51.096;17.006;2023-07-29T07:05:37;99610.61;;;22.15;63.97
76819;BME280;65772;51.096;17.006;2023-07-29T07:08:08;99609.49;;;22.17;63.63
76819;BME280;65772;51.096;17.006;2023-07-29T07:10:38;99609.42;;;22.20;63.75
76819;BME280;65772;51.096;17.006;2023-07-29T07:13:09;99608.30;;;22.23;63.62
76819;BME280;65772;51.096;17.006;2023-07-29T07:15:39;99610.24;;;22.27;63.50
76819;BME280;65772;51.096;17.006;2023-07-29T07:18:10;99611.71;;;22.31;63.54
76819;BME280;65772;51.096;17.006;2023-07-29T07:20:40;99610.40;;;22.34;63.55
76819;BME280;65772;51.096;17.006;2023-07-29T07:23:11;99614.16;;;22.36;63.42
76819;BME280;65772;51.096;17.006;2023-07-29T07:25:43;99617.60;;;22.37;63.31
76819;BME280;65772;51.096;17.006;2023-07-29T07:28:13;99618.27;;;22.38;63.39
76819;BME280;65772;51.096;17.006;2023-07-29T07:30:44;99618.92;;;22.39;63.11
76819;BME280;65772;51.096;17.006;2023-07-29T07:33:14;99622.57;;;22.40;63.15
76819;BME280;65772;51.096;17.006;2023-07-29T07:35:45;99623.92;;;22.41;63.75
76819;BME280;65772;51.096;17.006;2023-07-29T07:38:15;99622.59;;;22.45;63.85
76819;BME280;65772;51.096;17.006;2023-07-29T07:40:53;99621.26;;;22.48;63.95
76819;BME280;65772;51.096;17.006;2023-07-29T07:43:25;99618.02;;;22.52;64.20
76819;BME280;65772;51.096;17.006;2023-07-29T07:46:01;99614.07;;;22.56;64.44
76819;BME280;65772;51.096;17.006;2023-07-29T07:48:32;99612.20;;;22.60;64.09
76819;BME280;65772;51.096;17.006;2023-07-29T07:51:11;99606.18;;;22.63;63.34
76819;BME280;65772;51.096;17.006;2023-07-29T07:53:42;99607.61;;;22.68;63.27
76819;BME280;65772;51.096;17.006;2023-07-29T07:56:12;99610.32;;;22.70;62.93
76819;BME280;65772;51.096;17.006;2023-07-29T07:58:43;99608.52;;;22.71;63.01
76819;BME280;65772;51.096;17.006;2023-07-29T08:01:13;99610.23;;;22.73;62.68
76819;BME280;65772;51.096;17.006;2023-07-29T08:03:44;99606.87;;;22.74;62.70
76819;BME280;65772;51.096;17.006;2023-07-29T08:06:15;99604.95;;;22.75;62.76
76819;BME280;65772;51.096;17.006;2023-07-29T08:08:45;99601.12;;;22.75;62.82
76819;BME280;65772;51.096;17.006;2023-07-29T08:11:16;99602.30;;;22.77;62.98
76819;BME280;65772;51.096;17.006;2023-07-29T08:13:46;99598.02;;;22.80;62.62
76819;BME280;65772;51.096;17.006;2023-07-29T08:16:17;99591.66;;;22.82;62.28
76819;BME280;65772;51.096;17.006;2023-07-29T08:18:47;99587.27;;;22.84;62.52
76819;BME280;65772;51.096;17.006;2023-07-29T08:21:18;99588.77;;;22.86;62.30
76819;BME280;65772;51.096;17.006;2023-07-29T08:23:48;99585.88;;;22.89;62.14
76819;BME280;65772;51.096;17.006;2023-07-29T08:26:19;99582.63;;;22.92;61.94
76819;BME280;65772;51.096;17.006;2023-07-29T08:28:50;99576.13;;;22.94;61.86
76819;BME280;65772;51.096;17.006;2023-07-29T08:31:23;99575.67;;;22.97;61.64
76819;BME280;65772;51.096;17.006;2023-07-29T08:33:54;99570.16;;;23.00;61.44
76819;BME280;65772;51.096;17.006;2023-07-29T08:36:24;99566.13;;;23.02;61.45
76819;BME280;65772;51.096;17.006;2023-07-29T08:38:55;99565.35;;;23.04;61.39
76819;BME280;65772;51.096;17.006;2023-07-29T08:41:29;99560.58;;;23.06;61.34
76819;BME280;65772;51.096;17.006;2023-07-29T08:44:06;99554.59;;;23.08;61.13
76819;BME280;65772;51.096;17.006;2023-07-29T08:46:41;99554.83;;;23.11;61.23
76819;BME280;65772;51.096;17.006;2023-07-29T08:49:14;99553.52;;;23.14;61.38
76819;BME280;65772;51.096;17.006;2023-07-29T08:51:48;99552.23;;;23.16;61.31
76819;BME280;65772;51.096;17.006;2023-07-29T08:54:20;99551.54;;;23.21;61.45
76819;BME280;65772;51.096;17.006;2023-07-29T08:56:51;99543.40;;;23.24;61.58
76819;BME280;65772;51.096;17.006;2023-07-29T08:59:22;99545.38;;;23.27;61.74
76819;BME280;65772;51.096;17.006;2023-07-29T09:01:55;99551.33;;;23.31;61.92
76819;BME280;65772;51.096;17.006;2023-07-29T09:04:26;99550.84;;;23.35;61.93
76819;BME280;65772;51.096;17.006;2023-07-29T09:06:57;99549.16;;;23.39;61.50
76819;BME280;65772;51.096;17.006;2023-07-29T09:09:27;99547.89;;;23.41;61.18
76819;BME280;65772;51.096;17.006;2023-07-29T09:11:58;99548.85;;;23.42;61.04
76819;BME280;65772;51.096;17.006;2023-07-29T09:14:29;99547.95;;;23.43;60.96
76819;BME280;65772;51.096;17.006;2023-07-29T09:17:00;99545.27;;;23.45;60.98
76819;BME280;65772;51.096;17.006;2023-07-29T09:19:34;99541.08;;;23.45;60.78
76819;BME280;65772;51.096;17.006;2023-07-29T09:22:05;99540.36;;;23.46;60.73
76819;BME280;65772;51.096;17.006;2023-07-29T09:24:47;99547.30;;;23.47;60.90
76819;BME280;65772;51.096;17.006;2023-07-29T09:27:27;99544.63;;;23.48;61.89
76819;BME280;65772;51.096;17.006;2023-07-29T09:30:01;99541.80;;;23.51;61.90
76819;BME280;65772;51.096;17.006;2023-07-29T09:32:32;99539.83;;;23.52;61.26
76819;BME280;65772;51.096;17.006;2023-07-29T09:35:03;99535.05;;;23.53;61.04
76819;BME280;65772;51.096;17.006;2023-07-29T09:37:40;99529.89;;;23.57;61.79
76819;BME280;65772;51.096;17.006;2023-07-29T09:40:15;99531.00;;;23.64;61.86
76819;BME280;65772;51.096;17.006;2023-07-29T09:42:53;99534.14;;;23.69;61.32
76819;BME280;65772;51.096;17.006;2023-07-29T09:45:25;99529.42;;;23.74;60.86
76819;BME280;65772;51.096;17.006;2023-07-29T09:47:58;99526.34;;;23.77;60.79
76819;BME280;65772;51.096;17.006;2023-07-29T09:50:28;99522.20;;;23.81;60.69
76819;BME280;65772;51.096;17.006;2023-07-29T09:52:59;99516.10;;;23.84;60.77
76819;BME280;65772;51.096;17.006;2023-07-29T09:55:34;99514.24;;;23.88;60.21
76819;BME280;65772;51.096;17.006;2023-07-29T09:58:05;99518.70;;;23.90;60.16
76819;BME280;65772;51.096;17.006;2023-07-29T10:00:37;99519.85;;;23.92;60.20
76819;BME280;65772;51.096;17.006;2023-07-29T10:03:09;99518.55;;;23.94;60.20
76819;BME280;65772;51.096;17.006;2023-07-29T10:05:40;99514.48;;;23.95;60.29
76819;BME280;65772;51.096;17.006;2023-07-29T10:08:12;99516.56;;;23.95;60.18
76819;BME280;65772;51.096;17.006;2023-07-29T10:10:43;99514.25;;;23.96;60.26
76819;BME280;65772;51.096;17.006;2023-07-29T10:13:15;99516.52;;;23.96;60.27
76819;BME280;65772;51.096;17.006;2023-07-29T10:15:46;99518.27;;;23.96;59.63
76819;BME280;65772;51.096;17.006;2023-07-29T10:18:18;99522.59;;;23.97;59.70
76819;BME280;65772;51.096;17.006;2023-07-29T10:20:51;99525.21;;;23.97;59.50
76819;BME280;65772;51.096;17.006;2023-07-29T10:23:24;99528.46;;;23.98;59.38
76819;BME280;65772;51.096;17.006;2023-07-29T10:25:59;99524.04;;;24.00;59.18
76819;BME280;65772;51.096;17.006;2023-07-29T10:28:33;99515.95;;;24.02;59.10
76819;BME280;65772;51.096;17.006;2023-07-29T10:31:07;99518.00;;;24.03;58.78
76819;BME280;65772;51.096;17.006;2023-07-29T10:33:38;99513.55;;;24.05;58.40
76819;BME280;65772;51.096;17.006;2023-07-29T10:36:10;99508.05;;;24.07;58.29
76819;BME280;65772;51.096;17.006;2023-07-29T10:38:42;99509.76;;;24.09;58.28
76819;BME280;65772;51.096;17.006;2023-07-29T10:41:12;99506.24;;;24.09;58.21
76819;BME280;65772;51.096;17.006;2023-07-29T10:43:43;99504.66;;;24.10;57.69
76819;BME280;65772;51.096;17.006;2023-07-29T10:46:20;99503.40;;;24.11;57.68
76819;BME280;65772;51.096;17.006;2023-07-29T10:48:55;99494.56;;;24.14;57.52
76819;BME280;65772;51.096;17.006;2023-07-29T10:51:28;99490.07;;;24.17;57.10
76819;BME280;65772;51.096;17.006;2023-07-29T10:54:03;99483.71;;;24.19;56.83
76819;BME280;65772;51.096;17.006;2023-07-29T10:56:35;99472.70;;;24.19;56.76
76819;BME280;65772;51.096;17.006;2023-07-29T11:02:18;99462.34;;;24.22;56.43
76819;BME280;65772;51.096;17.006;2023-07-29T11:04:51;99462.34;;;24.26;56.25
76819;BME280;65772;51.096;17.006;2023-07-29T11:07:23;99460.30;;;24.29;55.90
76819;BME280;65772;51.096;17.006;2023-07-29T11:09:58;99457.84;;;24.34;55.85
76819;BME280;65772;51.096;17.006;2023-07-29T11:12:46;99456.79;;;24.38;56.47
76819;BME280;65772;51.096;17.006;2023-07-29T11:15:20;99456.61;;;24.43;56.57
76819;BME280;65772;51.096;17.006;2023-07-29T11:17:52;99454.31;;;24.48;56.01
76819;BME280;65772;51.096;17.006;2023-07-29T11:20:24;99460.52;;;24.53;56.06
76819;BME280;65772;51.096;17.006;2023-07-29T11:22:56;99450.97;;;24.57;55.97
76819;BME280;65772;51.096;17.006;2023-07-29T11:25:28;99450.79;;;24.57;55.86
76819;BME280;65772;51.096;17.006;2023-07-29T11:28:00;99453.80;;;24.56;55.47
76819;BME280;65772;51.096;17.006;2023-07-29T11:30:36;99449.48;;;24.58;55.42
76819;BME280;65772;51.096;17.006;2023-07-29T11:33:09;99444.18;;;24.60;55.54
76819;BME280;65772;51.096;17.006;2023-07-29T11:35:40;99441.95;;;24.63;55.37
76819;BME280;65772;51.096;17.006;2023-07-29T11:38:16;99438.09;;;24.64;55.37
76819;BME280;65772;51.096;17.006;2023-07-29T11:40:57;99434.41;;;24.64;55.25
76819;BME280;65772;51.096;17.006;2023-07-29T11:43:28;99428.35;;;24.63;55.02
76819;BME280;65772;51.096;17.006;2023-07-29T11:46:02;99427.43;;;24.64;55.33
76819;BME280;65772;51.096;17.006;2023-07-29T11:48:33;99428.32;;;24.68;55.57
76819;BME280;65772;51.096;17.006;2023-07-29T11:51:04;99422.97;;;24.70;55.41
76819;BME280;65772;51.096;17.006;2023-07-29T11:53:35;99423.29;;;24.71;55.11
76819;BME280;65772;51.096;17.006;2023-07-29T11:56:05;99422.02;;;24.72;54.94
76819;BME280;65772;51.096;17.006;2023-07-29T11:58:36;99421.52;;;24.71;54.53
76819;BME280;65772;51.096;17.006;2023-07-29T12:01:06;99428.09;;;24.73;54.80
76819;BME280;65772;51.096;17.006;2023-07-29T12:03:38;99432.19;;;24.75;54.08
76819;BME280;65772;51.096;17.006;2023-07-29T12:06:13;99432.39;;;24.78;53.91
76819;BME280;65772;51.096;17.006;2023-07-29T12:08:44;99425.46;;;24.81;53.55
76819;BME280;65772;51.096;17.006;2023-07-29T12:11:15;99421.41;;;24.82;53.15
76819;BME280;65772;51.096;17.006;2023-07-29T12:13:46;99419.23;;;24.84;52.49
76819;BME280;65772;51.096;17.006;2023-07-29T12:16:17;99421.34;;;24.88;52.38
76819;BME280;65772;51.096;17.006;2023-07-29T12:18:49;99419.11;;;24.91;51.84
76819;BME280;65772;51.096;17.006;2023-07-29T12:21:20;99418.61;;;24.95;51.55
76819;BME280;65772;51.096;17.006;2023-07-29T12:23:52;99417.88;;;24.99;51.23
76819;BME280;65772;51.096;17.006;2023-07-29T12:26:28;99407.38;;;25.03;50.89
76819;BME280;65772;51.096;17.006;2023-07-29T12:28:59;99408.86;;;25.09;50.54
76819;BME280;65772;51.096;17.006;2023-07-29T12:31:38;99411.20;;;25.16;50.31
76819;BME280;65772;51.096;17.006;2023-07-29T12:34:09;99398.95;;;25.24;49.71
76819;BME280;65772;51.096;17.006;2023-07-29T12:36:45;99392.42;;;25.29;49.76
76819;BME280;65772;51.096;17.006;2023-07-29T12:39:20;99388.88;;;25.31;49.84
76819;BME280;65772;51.096;17.006;2023-07-29T12:41:52;99392.41;;;25.33;49.84
76819;BME280;65772;51.096;17.006;2023-07-29T12:44:24;99386.30;;;25.32;49.43
76819;BME280;65772;51.096;17.006;2023-07-29T12:46:55;99382.33;;;25.32;49.27
76819;BME280;65772;51.096;17.006;2023-07-29T12:49:25;99375.66;;;25.32;49.84
76819;BME280;65772;51.096;17.006;2023-07-29T12:51:58;99370.49;;;25.34;50.03
76819;BME280;65772;51.096;17.006;2023-07-29T12:54:28;99370.15;;;25.38;49.60
76819;BME280;65772;51.096;17.006;2023-07-29T12:56:59;99372.19;;;25.43;49.06
76819;BME280;65772;51.096;17.006;2023-07-29T12:59:29;99371.09;;;25.47;49.16
76819;BME280;65772;51.096;17.006;2023-07-29T13:02:00;99371.70;;;25.49;49.22
76819;BME280;65772;51.096;17.006;2023-07-29T13:04:32;99371.10;;;25.51;48.73
76819;BME280;65772;51.096;17.006;2023-07-29T13:07:02;99373.67;;;25.52;48.66
76819;BME280;65772;51.096;17.006;2023-07-29T13:09:33;99374.90;;;25.52;48.60
76819;BME280;65772;51.096;17.006;2023-07-29T13:12:04;99368.29;;;25.51;48.54
76819;BME280;65772;51.096;17.006;2023-07-29T13:14:34;99372.33;;;25.51;48.55
76819;BME280;65772;51.096;17.006;2023-07-29T13:17:06;99377.41;;;25.51;48.86